Аэропорт: Домодедово. Москва

ICAO: UUDD

METAR:
2021-01-24 18:30:00
UUDD 241830Z 17005MPS 2400 BR OVC002 02/01 Q1011 R88/290045 TEMPO 0700 FG
METAR:
2021-01-24 16:55:00
TAF UUDD 241655Z 2418/2524 16005G10MPS 1000 BR OVC002 TX02/2418Z TN00/2503Z TEMPO 2418/2421 0400 -DZ FG OVC001 BECMG 2421/2422 3100 BR OVC005 TEMPO 2422/2508 1000 -RA BR OVC003 TEMPO 2512/2524 2000 -SHRASN BR FEW003 BKN012CB